sensor_id;sensor_type;location;lat;lon;timestamp;P1;durP1;ratioP1;P2;durP2;ratioP2
43891;SDS011;29555;45.350;5.578;2023-04-24T00:01:12;0.65;;;0.43;;
43891;SDS011;29555;45.350;5.578;2023-04-24T00:03:38;0.50;;;0.50;;
43891;SDS011;29555;45.350;5.578;2023-04-24T00:06:04;3.20;;;0.60;;
43891;SDS011;29555;45.350;5.578;2023-04-24T00:08:31;0.55;;;0.55;;
43891;SDS011;29555;45.350;5.578;2023-04-24T00:10:57;0.85;;;0.43;;
43891;SDS011;29555;45.350;5.578;2023-04-24T00:13:23;0.90;;;0.70;;
43891;SDS011;29555;45.350;5.578;2023-04-24T00:15:48;0.32;;;0.32;;
43891;SDS011;29555;45.350;5.578;2023-04-24T00:18:14;1.70;;;0.70;;
43891;SDS011;29555;45.350;5.578;2023-04-24T00:20:39;2.75;;;0.90;;
43891;SDS011;29555;45.350;5.578;2023-04-24T00:23:05;0.95;;;0.73;;
43891;SDS011;29555;45.350;5.578;2023-04-24T00:25:30;4.05;;;1.00;;
43891;SDS011;29555;45.350;5.578;2023-04-24T00:27:56;1.35;;;0.57;;
43891;SDS011;29555;45.350;5.578;2023-04-24T00:30:21;0.52;;;0.43;;
43891;SDS011;29555;45.350;5.578;2023-04-24T00:32:46;2.33;;;0.63;;
43891;SDS011;29555;45.350;5.578;2023-04-24T00:35:12;1.30;;;0.80;;
43891;SDS011;29555;45.350;5.578;2023-04-24T00:37:37;1.90;;;0.80;;
43891;SDS011;29555;45.350;5.578;2023-04-24T00:40:02;1.50;;;1.25;;
43891;SDS011;29555;45.350;5.578;2023-04-24T00:42:28;0.80;;;0.80;;
43891;SDS011;29555;45.350;5.578;2023-04-24T00:44:53;0.93;;;0.82;;
43891;SDS011;29555;45.350;5.578;2023-04-24T00:47:19;0.98;;;0.47;;
43891;SDS011;29555;45.350;5.578;2023-04-24T00:49:45;1.30;;;0.90;;
43891;SDS011;29555;45.350;5.578;2023-04-24T00:52:10;2.67;;;0.95;;
43891;SDS011;29555;45.350;5.578;2023-04-24T00:54:37;0.73;;;0.55;;
43891;SDS011;29555;45.350;5.578;2023-04-24T00:57:02;0.60;;;0.60;;
43891;SDS011;29555;45.350;5.578;2023-04-24T00:59:29;4.40;;;0.63;;
43891;SDS011;29555;45.350;5.578;2023-04-24T01:01:55;0.95;;;0.50;;
43891;SDS011;29555;45.350;5.578;2023-04-24T01:04:21;3.38;;;1.15;;
43891;SDS011;29555;45.350;5.578;2023-04-24T01:06:46;2.97;;;0.45;;
43891;SDS011;29555;45.350;5.578;2023-04-24T01:09:13;6.82;;;1.15;;
43891;SDS011;29555;45.350;5.578;2023-04-24T01:11:40;0.77;;;0.75;;
43891;SDS011;29555;45.350;5.578;2023-04-24T01:14:08;2.60;;;1.10;;
43891;SDS011;29555;45.350;5.578;2023-04-24T01:16:33;1.85;;;0.85;;
43891;SDS011;29555;45.350;5.578;2023-04-24T01:18:59;1.33;;;1.23;;
43891;SDS011;29555;45.350;5.578;2023-04-24T01:21:25;1.98;;;0.95;;
43891;SDS011;29555;45.350;5.578;2023-04-24T01:23:55;3.45;;;0.80;;
43891;SDS011;29555;45.350;5.578;2023-04-24T01:26:21;1.52;;;0.88;;
43891;SDS011;29555;45.350;5.578;2023-04-24T01:28:47;2.75;;;1.77;;
43891;SDS011;29555;45.350;5.578;2023-04-24T01:31:13;4.57;;;1.52;;
43891;SDS011;29555;45.350;5.578;2023-04-24T01:33:39;0.93;;;0.90;;
43891;SDS011;29555;45.350;5.578;2023-04-24T01:36:06;1.23;;;1.13;;
43891;SDS011;29555;45.350;5.578;2023-04-24T01:38:33;1.92;;;1.40;;
43891;SDS011;29555;45.350;5.578;2023-04-24T01:40:58;1.10;;;1.05;;
43891;SDS011;29555;45.350;5.578;2023-04-24T01:43:24;2.40;;;1.40;;
43891;SDS011;29555;45.350;5.578;2023-04-24T01:45:49;1.83;;;1.73;;
43891;SDS011;29555;45.350;5.578;2023-04-24T01:48:15;1.80;;;0.70;;
43891;SDS011;29555;45.350;5.578;2023-04-24T01:50:40;6.97;;;1.83;;
43891;SDS011;29555;45.350;5.578;2023-04-24T01:53:06;1.10;;;1.00;;
43891;SDS011;29555;45.350;5.578;2023-04-24T01:55:31;2.00;;;1.13;;
43891;SDS011;29555;45.350;5.578;2023-04-24T01:57:56;3.08;;;0.45;;
43891;SDS011;29555;45.350;5.578;2023-04-24T02:00:23;1.45;;;0.82;;
43891;SDS011;29555;45.350;5.578;2023-04-24T02:02:49;1.45;;;0.82;;
43891;SDS011;29555;45.350;5.578;2023-04-24T02:05:15;1.60;;;1.38;;
43891;SDS011;29555;45.350;5.578;2023-04-24T02:07:40;2.67;;;1.05;;
43891;SDS011;29555;45.350;5.578;2023-04-24T02:10:06;0.40;;;0.40;;
43891;SDS011;29555;45.350;5.578;2023-04-24T02:12:32;4.22;;;1.10;;
43891;SDS011;29555;45.350;5.578;2023-04-24T02:14:57;1.77;;;1.10;;
43891;SDS011;29555;45.350;5.578;2023-04-24T02:17:23;3.00;;;1.77;;
43891;SDS011;29555;45.350;5.578;2023-04-24T02:19:48;0.77;;;0.77;;
43891;SDS011;29555;45.350;5.578;2023-04-24T02:22:14;2.63;;;1.23;;
43891;SDS011;29555;45.350;5.578;2023-04-24T02:24:39;0.75;;;0.75;;
43891;SDS011;29555;45.350;5.578;2023-04-24T02:27:05;0.77;;;0.70;;
43891;SDS011;29555;45.350;5.578;2023-04-24T02:29:30;1.13;;;1.08;;
43891;SDS011;29555;45.350;5.578;2023-04-24T02:31:56;4.05;;;0.85;;
43891;SDS011;29555;45.350;5.578;2023-04-24T02:34:21;1.52;;;1.13;;
43891;SDS011;29555;45.350;5.578;2023-04-24T02:36:48;1.55;;;0.95;;
43891;SDS011;29555;45.350;5.578;2023-04-24T02:39:13;5.38;;;1.08;;
43891;SDS011;29555;45.350;5.578;2023-04-24T02:41:41;9.02;;;1.13;;
43891;SDS011;29555;45.350;5.578;2023-04-24T02:44:07;6.28;;;2.38;;
43891;SDS011;29555;45.350;5.578;2023-04-24T02:46:32;3.53;;;2.53;;
43891;SDS011;29555;45.350;5.578;2023-04-24T02:48:57;3.72;;;2.42;;
43891;SDS011;29555;45.350;5.578;2023-04-24T02:51:23;4.63;;;2.38;;
43891;SDS011;29555;45.350;5.578;2023-04-24T02:53:48;2.90;;;2.08;;
43891;SDS011;29555;45.350;5.578;2023-04-24T02:56:13;5.47;;;3.47;;
43891;SDS011;29555;45.350;5.578;2023-04-24T02:58:39;3.28;;;2.85;;
43891;SDS011;29555;45.350;5.578;2023-04-24T03:01:07;3.22;;;2.90;;
43891;SDS011;29555;45.350;5.578;2023-04-24T03:03:32;3.63;;;3.05;;
43891;SDS011;29555;45.350;5.578;2023-04-24T03:05:58;2.97;;;2.75;;
43891;SDS011;29555;45.350;5.578;2023-04-24T03:08:23;4.00;;;3.08;;
43891;SDS011;29555;45.350;5.578;2023-04-24T03:10:49;4.30;;;2.85;;
43891;SDS011;29555;45.350;5.578;2023-04-24T03:13:15;3.30;;;3.00;;
43891;SDS011;29555;45.350;5.578;2023-04-24T03:15:41;4.53;;;3.28;;
43891;SDS011;29555;45.350;5.578;2023-04-24T03:18:06;7.15;;;4.22;;
43891;SDS011;29555;45.350;5.578;2023-04-24T03:20:31;3.20;;;2.85;;
43891;SDS011;29555;45.350;5.578;2023-04-24T03:22:56;2.88;;;2.63;;
43891;SDS011;29555;45.350;5.578;2023-04-24T03:25:22;3.90;;;3.28;;
43891;SDS011;29555;45.350;5.578;2023-04-24T03:27:47;13.52;;;2.85;;
43891;SDS011;29555;45.350;5.578;2023-04-24T03:30:13;8.25;;;3.15;;
43891;SDS011;29555;45.350;5.578;2023-04-24T03:32:38;3.20;;;2.33;;
43891;SDS011;29555;45.350;5.578;2023-04-24T03:35:04;1.83;;;1.73;;
43891;SDS011;29555;45.350;5.578;2023-04-24T03:37:32;5.65;;;2.30;;
43891;SDS011;29555;45.350;5.578;2023-04-24T03:39:57;2.63;;;2.10;;
43891;SDS011;29555;45.350;5.578;2023-04-24T03:42:22;5.65;;;3.08;;
43891;SDS011;29555;45.350;5.578;2023-04-24T03:44:48;1.90;;;1.80;;
43891;SDS011;29555;45.350;5.578;2023-04-24T03:47:13;4.30;;;2.65;;
43891;SDS011;29555;45.350;5.578;2023-04-24T03:49:38;1.98;;;1.77;;
43891;SDS011;29555;45.350;5.578;2023-04-24T03:52:04;2.10;;;1.88;;
43891;SDS011;29555;45.350;5.578;2023-04-24T03:54:29;6.45;;;2.20;;
43891;SDS011;29555;45.350;5.578;2023-04-24T03:56:54;2.47;;;2.03;;
43891;SDS011;29555;45.350;5.578;2023-04-24T03:59:20;1.95;;;1.75;;
43891;SDS011;29555;45.350;5.578;2023-04-24T04:01:45;2.95;;;2.20;;
43891;SDS011;29555;45.350;5.578;2023-04-24T04:04:11;5.10;;;3.13;;
43891;SDS011;29555;45.350;5.578;2023-04-24T04:06:37;4.65;;;2.58;;
43891;SDS011;29555;45.350;5.578;2023-04-24T04:09:03;2.40;;;2.20;;
43891;SDS011;29555;45.350;5.578;2023-04-24T04:11:28;1.05;;;1.05;;
43891;SDS011;29555;45.350;5.578;2023-04-24T04:13:55;2.70;;;2.05;;
43891;SDS011;29555;45.350;5.578;2023-04-24T04:16:21;4.70;;;1.75;;
43891;SDS011;29555;45.350;5.578;2023-04-24T04:18:47;3.15;;;2.85;;
43891;SDS011;29555;45.350;5.578;2023-04-24T04:21:12;3.20;;;2.67;;
43891;SDS011;29555;45.350;5.578;2023-04-24T04:23:38;2.80;;;2.55;;
43891;SDS011;29555;45.350;5.578;2023-04-24T04:26:04;3.70;;;3.38;;
43891;SDS011;29555;45.350;5.578;2023-04-24T04:28:30;5.80;;;2.33;;
43891;SDS011;29555;45.350;5.578;2023-04-24T04:30:56;3.90;;;2.72;;
43891;SDS011;29555;45.350;5.578;2023-04-24T04:33:22;5.78;;;2.90;;
43891;SDS011;29555;45.350;5.578;2023-04-24T04:35:48;2.70;;;2.22;;
43891;SDS011;29555;45.350;5.578;2023-04-24T04:38:15;4.75;;;1.83;;
43891;SDS011;29555;45.350;5.578;2023-04-24T04:40:41;2.80;;;1.52;;
43891;SDS011;29555;45.350;5.578;2023-04-24T04:43:07;1.33;;;1.23;;
43891;SDS011;29555;45.350;5.578;2023-04-24T04:45:33;6.32;;;1.90;;
43891;SDS011;29555;45.350;5.578;2023-04-24T04:47:59;6.15;;;1.33;;
43891;SDS011;29555;45.350;5.578;2023-04-24T04:50:28;1.45;;;1.27;;
43891;SDS011;29555;45.350;5.578;2023-04-24T04:52:53;1.20;;;1.10;;
43891;SDS011;29555;45.350;5.578;2023-04-24T04:55:19;1.92;;;1.13;;
43891;SDS011;29555;45.350;5.578;2023-04-24T04:57:45;1.65;;;1.00;;
43891;SDS011;29555;45.350;5.578;2023-04-24T05:00:11;1.63;;;1.50;;
43891;SDS011;29555;45.350;5.578;2023-04-24T05:02:37;1.17;;;1.05;;
43891;SDS011;29555;45.350;5.578;2023-04-24T05:05:04;1.52;;;1.23;;
43891;SDS011;29555;45.350;5.578;2023-04-24T05:07:31;1.45;;;1.17;;
43891;SDS011;29555;45.350;5.578;2023-04-24T05:09:56;1.42;;;0.80;;
43891;SDS011;29555;45.350;5.578;2023-04-24T05:12:22;2.45;;;1.13;;
43891;SDS011;29555;45.350;5.578;2023-04-24T05:14:47;0.88;;;0.88;;
43891;SDS011;29555;45.350;5.578;2023-04-24T05:17:12;0.50;;;0.50;;
43891;SDS011;29555;45.350;5.578;2023-04-24T05:19:38;0.82;;;0.50;;
43891;SDS011;29555;45.350;5.578;2023-04-24T05:22:03;1.75;;;0.88;;
43891;SDS011;29555;45.350;5.578;2023-04-24T05:24:31;1.40;;;0.98;;
43891;SDS011;29555;45.350;5.578;2023-04-24T05:27:00;2.20;;;1.20;;
43891;SDS011;29555;45.350;5.578;2023-04-24T05:29:25;5.00;;;0.93;;
43891;SDS011;29555;45.350;5.578;2023-04-24T05:31:51;2.33;;;1.70;;
43891;SDS011;29555;45.350;5.578;2023-04-24T05:34:17;1.48;;;1.38;;
43891;SDS011;29555;45.350;5.578;2023-04-24T05:36:42;8.63;;;2.00;;
43891;SDS011;29555;45.350;5.578;2023-04-24T05:39:08;2.25;;;1.52;;
43891;SDS011;29555;45.350;5.578;2023-04-24T05:41:33;2.58;;;1.63;;
43891;SDS011;29555;45.350;5.578;2023-04-24T05:43:59;1.90;;;1.40;;
43891;SDS011;29555;45.350;5.578;2023-04-24T05:46:24;1.67;;;1.55;;
43891;SDS011;29555;45.350;5.578;2023-04-24T05:48:50;2.70;;;1.67;;
43891;SDS011;29555;45.350;5.578;2023-04-24T05:51:15;1.38;;;1.27;;
43891;SDS011;29555;45.350;5.578;2023-04-24T05:53:41;1.00;;;1.00;;
43891;SDS011;29555;45.350;5.578;2023-04-24T05:56:06;3.00;;;1.42;;
43891;SDS011;29555;45.350;5.578;2023-04-24T05:58:32;1.70;;;1.40;;
43891;SDS011;29555;45.350;5.578;2023-04-24T06:00:57;3.65;;;1.30;;
43891;SDS011;29555;45.350;5.578;2023-04-24T06:03:23;0.82;;;0.82;;
43891;SDS011;29555;45.350;5.578;2023-04-24T06:05:50;1.02;;;0.70;;
43891;SDS011;29555;45.350;5.578;2023-04-24T06:08:16;5.03;;;0.93;;
43891;SDS011;29555;45.350;5.578;2023-04-24T06:10:41;1.65;;;1.20;;
43891;SDS011;29555;45.350;5.578;2023-04-24T06:13:06;2.30;;;0.63;;
43891;SDS011;29555;45.350;5.578;2023-04-24T06:15:32;2.38;;;1.15;;
43891;SDS011;29555;45.350;5.578;2023-04-24T06:17:58;5.47;;;1.02;;
43891;SDS011;29555;45.350;5.578;2023-04-24T06:20:23;4.45;;;1.73;;
43891;SDS011;29555;45.350;5.578;2023-04-24T06:22:49;4.30;;;1.60;;
43891;SDS011;29555;45.350;5.578;2023-04-24T06:25:14;6.28;;;1.23;;
43891;SDS011;29555;45.350;5.578;2023-04-24T06:27:40;1.92;;;1.50;;
43891;SDS011;29555;45.350;5.578;2023-04-24T06:30:05;1.02;;;1.00;;
43891;SDS011;29555;45.350;5.578;2023-04-24T06:32:32;1.38;;;0.98;;
43891;SDS011;29555;45.350;5.578;2023-04-24T06:34:57;1.02;;;0.93;;
43891;SDS011;29555;45.350;5.578;2023-04-24T06:37:23;2.97;;;1.08;;
43891;SDS011;29555;45.350;5.578;2023-04-24T06:39:48;1.75;;;1.27;;
43891;SDS011;29555;45.350;5.578;2023-04-24T06:42:14;2.72;;;1.52;;
43891;SDS011;29555;45.350;5.578;2023-04-24T06:44:39;1.98;;;1.00;;
43891;SDS011;29555;45.350;5.578;2023-04-24T06:47:08;0.93;;;0.93;;
43891;SDS011;29555;45.350;5.578;2023-04-24T06:49:37;8.10;;;1.50;;
43891;SDS011;29555;45.350;5.578;2023-04-24T06:52:03;3.60;;;1.45;;
43891;SDS011;29555;45.350;5.578;2023-04-24T06:54:29;2.75;;;1.13;;
43891;SDS011;29555;45.350;5.578;2023-04-24T06:56:55;2.55;;;1.23;;
43891;SDS011;29555;45.350;5.578;2023-04-24T06:59:22;1.20;;;1.08;;
43891;SDS011;29555;45.350;5.578;2023-04-24T07:01:48;1.25;;;0.88;;
43891;SDS011;29555;45.350;5.578;2023-04-24T07:04:13;5.80;;;1.17;;
43891;SDS011;29555;45.350;5.578;2023-04-24T07:06:39;0.77;;;0.75;;
43891;SDS011;29555;45.350;5.578;2023-04-24T07:09:04;1.40;;;1.13;;
43891;SDS011;29555;45.350;5.578;2023-04-24T07:11:30;1.42;;;1.33;;
43891;SDS011;29555;45.350;5.578;2023-04-24T07:13:55;0.73;;;0.73;;
43891;SDS011;29555;45.350;5.578;2023-04-24T07:16:21;6.43;;;1.55;;
43891;SDS011;29555;45.350;5.578;2023-04-24T07:18:46;0.95;;;0.68;;
43891;SDS011;29555;45.350;5.578;2023-04-24T07:21:12;2.47;;;1.17;;
43891;SDS011;29555;45.350;5.578;2023-04-24T07:23:37;11.35;;;1.20;;
43891;SDS011;29555;45.350;5.578;2023-04-24T07:26:02;1.48;;;0.80;;
43891;SDS011;29555;45.350;5.578;2023-04-24T07:28:28;0.98;;;0.98;;
43891;SDS011;29555;45.350;5.578;2023-04-24T07:30:56;1.73;;;0.77;;
43891;SDS011;29555;45.350;5.578;2023-04-24T07:33:22;0.85;;;0.82;;
43891;SDS011;29555;45.350;5.578;2023-04-24T07:35:47;1.10;;;0.85;;
43891;SDS011;29555;45.350;5.578;2023-04-24T07:38:13;3.80;;;1.10;;
43891;SDS011;29555;45.350;5.578;2023-04-24T07:40:38;0.93;;;0.57;;
43891;SDS011;29555;45.350;5.578;2023-04-24T07:43:04;6.82;;;2.20;;
43891;SDS011;29555;45.350;5.578;2023-04-24T07:45:29;2.33;;;1.48;;
43891;SDS011;29555;45.350;5.578;2023-04-24T07:47:56;23.17;;;2.28;;
43891;SDS011;29555;45.350;5.578;2023-04-24T07:50:21;0.88;;;0.75;;
43891;SDS011;29555;45.350;5.578;2023-04-24T07:52:47;0.88;;;0.77;;
43891;SDS011;29555;45.350;5.578;2023-04-24T07:55:12;0.95;;;0.95;;
43891;SDS011;29555;45.350;5.578;2023-04-24T07:57:38;1.05;;;1.02;;
43891;SDS011;29555;45.350;5.578;2023-04-24T08:00:03;5.50;;;0.80;;
43891;SDS011;29555;45.350;5.578;2023-04-24T08:02:30;2.33;;;0.98;;
43891;SDS011;29555;45.350;5.578;2023-04-24T08:04:56;4.43;;;1.17;;
43891;SDS011;29555;45.350;5.578;2023-04-24T08:07:21;0.75;;;0.75;;
43891;SDS011;29555;45.350;5.578;2023-04-24T08:09:48;1.23;;;0.73;;
43891;SDS011;29555;45.350;5.578;2023-04-24T08:12:13;1.05;;;0.82;;
43891;SDS011;29555;45.350;5.578;2023-04-24T08:14:39;1.40;;;1.30;;
43891;SDS011;29555;45.350;5.578;2023-04-24T08:17:04;5.95;;;1.38;;
43891;SDS011;29555;45.350;5.578;2023-04-24T08:19:30;1.23;;;1.17;;
43891;SDS011;29555;45.350;5.578;2023-04-24T08:21:55;3.88;;;1.33;;
43891;SDS011;29555;45.350;5.578;2023-04-24T08:24:20;1.65;;;1.25;;
43891;SDS011;29555;45.350;5.578;2023-04-24T08:26:47;4.40;;;1.30;;
43891;SDS011;29555;45.350;5.578;2023-04-24T08:29:15;0.80;;;0.80;;
43891;SDS011;29555;45.350;5.578;2023-04-24T08:31:40;1.63;;;1.52;;
43891;SDS011;29555;45.350;5.578;2023-04-24T08:34:06;4.07;;;0.77;;
43891;SDS011;29555;45.350;5.578;2023-04-24T08:36:31;2.65;;;1.02;;
43891;SDS011;29555;45.350;5.578;2023-04-24T08:38:57;1.45;;;1.10;;
43891;SDS011;29555;45.350;5.578;2023-04-24T08:41:22;2.45;;;1.17;;
43891;SDS011;29555;45.350;5.578;2023-04-24T08:43:51;2.88;;;1.10;;
43891;SDS011;29555;45.350;5.578;2023-04-24T08:46:16;1.50;;;1.35;;
43891;SDS011;29555;45.350;5.578;2023-04-24T08:48:43;2.95;;;1.73;;
43891;SDS011;29555;45.350;5.578;2023-04-24T08:51:09;2.05;;;1.95;;
43891;SDS011;29555;45.350;5.578;2023-04-24T08:53:35;1.55;;;1.30;;
43891;SDS011;29555;45.350;5.578;2023-04-24T08:56:01;17.50;;;2.85;;
43891;SDS011;29555;45.350;5.578;2023-04-24T08:58:27;2.15;;;1.33;;
43891;SDS011;29555;45.350;5.578;2023-04-24T09:00:54;3.72;;;1.45;;
43891;SDS011;29555;45.350;5.578;2023-04-24T09:03:20;2.20;;;1.17;;
43891;SDS011;29555;45.350;5.578;2023-04-24T09:05:47;1.15;;;0.98;;
43891;SDS011;29555;45.350;5.578;2023-04-24T09:08:14;2.10;;;1.38;;
43891;SDS011;29555;45.350;5.578;2023-04-24T09:10:42;1.15;;;1.05;;
43891;SDS011;29555;45.350;5.578;2023-04-24T09:13:08;0.82;;;0.80;;
43891;SDS011;29555;45.350;5.578;2023-04-24T09:15:35;2.15;;;1.58;;
43891;SDS011;29555;45.350;5.578;2023-04-24T09:18:01;1.80;;;1.60;;
43891;SDS011;29555;45.350;5.578;2023-04-24T09:20:27;2.85;;;1.35;;
43891;SDS011;29555;45.350;5.578;2023-04-24T09:22:56;2.33;;;0.98;;
43891;SDS011;29555;45.350;5.578;2023-04-24T09:25:23;2.45;;;1.00;;
43891;SDS011;29555;45.350;5.578;2023-04-24T09:27:59;6.65;;;1.35;;
43891;SDS011;29555;45.350;5.578;2023-04-24T09:30:26;2.35;;;1.52;;
43891;SDS011;29555;45.350;5.578;2023-04-24T09:35:49;5.90;;;1.23;;
43891;SDS011;29555;45.350;5.578;2023-04-24T09:38:17;4.03;;;1.80;;
43891;SDS011;29555;45.350;5.578;2023-04-24T09:40:43;1.48;;;1.38;;
43891;SDS011;29555;45.350;5.578;2023-04-24T09:43:11;2.83;;;1.67;;
43891;SDS011;29555;45.350;5.578;2023-04-24T09:45:37;0.73;;;0.73;;
43891;SDS011;29555;45.350;5.578;2023-04-24T09:48:04;1.58;;;1.23;;
43891;SDS011;29555;45.350;5.578;2023-04-24T09:50:31;1.52;;;1.38;;
43891;SDS011;29555;45.350;5.578;2023-04-24T09:53:04;3.17;;;1.23;;
43891;SDS011;29555;45.350;5.578;2023-04-24T09:55:30;3.25;;;0.93;;
43891;SDS011;29555;45.350;5.578;2023-04-24T09:57:56;2.53;;;0.88;;
43891;SDS011;29555;45.350;5.578;2023-04-24T10:00:26;2.08;;;0.93;;
43891;SDS011;29555;45.350;5.578;2023-04-24T10:02:58;4.93;;;2.15;;
43891;SDS011;29555;45.350;5.578;2023-04-24T10:05:29;2.95;;;1.77;;
43891;SDS011;29555;45.350;5.578;2023-04-24T10:07:57;2.72;;;0.95;;
43891;SDS011;29555;45.350;5.578;2023-04-24T10:10:23;3.88;;;1.48;;
43891;SDS011;29555;45.350;5.578;2023-04-24T10:12:48;2.08;;;1.55;;
43891;SDS011;29555;45.350;5.578;2023-04-24T10:15:16;0.88;;;0.70;;
43891;SDS011;29555;45.350;5.578;2023-04-24T10:17:45;3.60;;;1.40;;
43891;SDS011;29555;45.350;5.578;2023-04-24T10:20:17;2.70;;;1.63;;
43891;SDS011;29555;45.350;5.578;2023-04-24T10:22:48;1.08;;;1.00;;
43891;SDS011;29555;45.350;5.578;2023-04-24T10:25:21;2.08;;;0.90;;
43891;SDS011;29555;45.350;5.578;2023-04-24T10:27:48;4.90;;;1.33;;
43891;SDS011;29555;45.350;5.578;2023-04-24T10:30:15;0.57;;;0.57;;
43891;SDS011;29555;45.350;5.578;2023-04-24T10:32:41;1.88;;;0.63;;
43891;SDS011;29555;45.350;5.578;2023-04-24T10:35:07;0.55;;;0.55;;
43891;SDS011;29555;45.350;5.578;2023-04-24T10:37:46;1.13;;;0.73;;
43891;SDS011;29555;45.350;5.578;2023-04-24T10:40:33;5.07;;;1.23;;
43891;SDS011;29555;45.350;5.578;2023-04-24T10:43:02;1.30;;;0.80;;
43891;SDS011;29555;45.350;5.578;2023-04-24T10:45:31;1.17;;;1.02;;
43891;SDS011;29555;45.350;5.578;2023-04-24T10:50:43;0.80;;;0.80;;
43891;SDS011;29555;45.350;5.578;2023-04-24T10:53:13;0.85;;;0.70;;
43891;SDS011;29555;45.350;5.578;2023-04-24T10:55:41;0.60;;;0.35;;
43891;SDS011;29555;45.350;5.578;2023-04-24T10:58:08;1.10;;;1.00;;
43891;SDS011;29555;45.350;5.578;2023-04-24T11:00:36;1.13;;;1.05;;
43891;SDS011;29555;45.350;5.578;2023-04-24T11:03:04;1.02;;;0.60;;
43891;SDS011;29555;45.350;5.578;2023-04-24T11:06:05;2.85;;;0.90;;
43891;SDS011;29555;45.350;5.578;2023-04-24T11:11:09;0.60;;;0.60;;
43891;SDS011;29555;45.350;5.578;2023-04-24T11:19:06;2.97;;;0.68;;
43891;SDS011;29555;45.350;5.578;2023-04-24T11:21:59;2.35;;;0.47;;
43891;SDS011;29555;45.350;5.578;2023-04-24T11:24:27;5.68;;;0.77;;
43891;SDS011;29555;45.350;5.578;2023-04-24T11:32:27;0.77;;;0.50;;
43891;SDS011;29555;45.350;5.578;2023-04-24T11:34:54;0.90;;;0.60;;
43891;SDS011;29555;45.350;5.578;2023-04-24T11:37:22;0.57;;;0.57;;
43891;SDS011;29555;45.350;5.578;2023-04-24T11:39:56;0.68;;;0.65;;
43891;SDS011;29555;45.350;5.578;2023-04-24T11:42:23;0.98;;;0.98;;
43891;SDS011;29555;45.350;5.578;2023-04-24T11:44:49;4.90;;;0.43;;
43891;SDS011;29555;45.350;5.578;2023-04-24T11:47:15;0.90;;;0.52;;
43891;SDS011;29555;45.350;5.578;2023-04-24T11:49:40;2.22;;;1.23;;
43891;SDS011;29555;45.350;5.578;2023-04-24T11:52:06;1.15;;;0.63;;
43891;SDS011;29555;45.350;5.578;2023-04-24T11:54:31;0.75;;;0.57;;
43891;SDS011;29555;45.350;5.578;2023-04-24T11:56:57;9.73;;;1.27;;
43891;SDS011;29555;45.350;5.578;2023-04-24T11:59:22;14.25;;;1.42;;
43891;SDS011;29555;45.350;5.578;2023-04-24T12:01:48;0.82;;;0.65;;
43891;SDS011;29555;45.350;5.578;2023-04-24T12:04:15;0.63;;;0.63;;
43891;SDS011;29555;45.350;5.578;2023-04-24T12:09:26;1.10;;;0.77;;
43891;SDS011;29555;45.350;5.578;2023-04-24T12:11:55;0.57;;;0.57;;
43891;SDS011;29555;45.350;5.578;2023-04-24T12:14:24;0.75;;;0.75;;
43891;SDS011;29555;45.350;5.578;2023-04-24T12:16:50;0.70;;;0.70;;
43891;SDS011;29555;45.350;5.578;2023-04-24T12:19:20;0.40;;;0.40;;
43891;SDS011;29555;45.350;5.578;2023-04-24T12:21:58;0.73;;;0.60;;
43891;SDS011;29555;45.350;5.578;2023-04-24T12:24:24;2.72;;;0.80;;
43891;SDS011;29555;45.350;5.578;2023-04-24T12:26:50;0.63;;;0.38;;
43891;SDS011;29555;45.350;5.578;2023-04-24T12:29:19;5.68;;;0.65;;
43891;SDS011;29555;45.350;5.578;2023-04-24T12:31:45;0.77;;;0.77;;
43891;SDS011;29555;45.350;5.578;2023-04-24T12:34:20;1.35;;;0.60;;
43891;SDS011;29555;45.350;5.578;2023-04-24T12:36:47;1.92;;;1.27;;
43891;SDS011;29555;45.350;5.578;2023-04-24T12:39:19;1.73;;;0.70;;
43891;SDS011;29555;45.350;5.578;2023-04-24T12:41:57;0.93;;;0.88;;
43891;SDS011;29555;45.350;5.578;2023-04-24T12:44:30;4.13;;;0.77;;
43891;SDS011;29555;45.350;5.578;2023-04-24T12:46:56;2.20;;;0.52;;
43891;SDS011;29555;45.350;5.578;2023-04-24T12:49:22;0.50;;;0.45;;
43891;SDS011;29555;45.350;5.578;2023-04-24T12:51:47;2.42;;;1.48;;
43891;SDS011;29555;45.350;5.578;2023-04-24T12:54:12;0.73;;;0.73;;
43891;SDS011;29555;45.350;5.578;2023-04-24T12:56:38;0.55;;;0.28;;
43891;SDS011;29555;45.350;5.578;2023-04-24T12:59:04;3.85;;;1.17;;
43891;SDS011;29555;45.350;5.578;2023-04-24T13:01:30;0.63;;;0.63;;
43891;SDS011;29555;45.350;5.578;2023-04-24T13:03:55;1.33;;;0.63;;
43891;SDS011;29555;45.350;5.578;2023-04-24T13:06:21;1.90;;;1.60;;
43891;SDS011;29555;45.350;5.578;2023-04-24T13:08:46;8.68;;;1.20;;
43891;SDS011;29555;45.350;5.578;2023-04-24T13:11:12;1.20;;;1.02;;
43891;SDS011;29555;45.350;5.578;2023-04-24T13:13:38;0.75;;;0.55;;
43891;SDS011;29555;45.350;5.578;2023-04-24T13:16:03;1.10;;;1.10;;
43891;SDS011;29555;45.350;5.578;2023-04-24T13:18:29;0.70;;;0.70;;
43891;SDS011;29555;45.350;5.578;2023-04-24T13:20:55;3.10;;;0.70;;
43891;SDS011;29555;45.350;5.578;2023-04-24T13:23:20;2.65;;;0.50;;
43891;SDS011;29555;45.350;5.578;2023-04-24T13:25:46;1.15;;;0.63;;
43891;SDS011;29555;45.350;5.578;2023-04-24T13:28:12;4.22;;;0.88;;
43891;SDS011;29555;45.350;5.578;2023-04-24T13:30:37;0.70;;;0.57;;
43891;SDS011;29555;45.350;5.578;2023-04-24T13:33:03;1.60;;;0.50;;
43891;SDS011;29555;45.350;5.578;2023-04-24T13:35:28;0.30;;;0.30;;
43891;SDS011;29555;45.350;5.578;2023-04-24T13:37:54;0.57;;;0.50;;
43891;SDS011;29555;45.350;5.578;2023-04-24T13:40:19;1.50;;;0.93;;
43891;SDS011;29555;45.350;5.578;2023-04-24T13:42:44;1.08;;;0.98;;
43891;SDS011;29555;45.350;5.578;2023-04-24T13:45:10;0.45;;;0.45;;
43891;SDS011;29555;45.350;5.578;2023-04-24T13:47:36;0.40;;;0.40;;
43891;SDS011;29555;45.350;5.578;2023-04-24T13:50:01;1.77;;;0.93;;
43891;SDS011;29555;45.350;5.578;2023-04-24T13:52:27;0.98;;;0.68;;
43891;SDS011;29555;45.350;5.578;2023-04-24T13:54:52;3.90;;;0.32;;
43891;SDS011;29555;45.350;5.578;2023-04-24T13:57:17;0.68;;;0.65;;
43891;SDS011;29555;45.350;5.578;2023-04-24T13:59:43;0.57;;;0.55;;
43891;SDS011;29555;45.350;5.578;2023-04-24T14:02:08;1.60;;;0.82;;
43891;SDS011;29555;45.350;5.578;2023-04-24T14:04:34;4.68;;;0.57;;
43891;SDS011;29555;45.350;5.578;2023-04-24T14:06:59;1.48;;;0.77;;
43891;SDS011;29555;45.350;5.578;2023-04-24T14:09:25;1.70;;;0.65;;
43891;SDS011;29555;45.350;5.578;2023-04-24T14:11:51;0.40;;;0.40;;
43891;SDS011;29555;45.350;5.578;2023-04-24T14:14:16;0.63;;;0.60;;
43891;SDS011;29555;45.350;5.578;2023-04-24T14:16:42;0.50;;;0.50;;
43891;SDS011;29555;45.350;5.578;2023-04-24T14:19:07;3.67;;;0.82;;
43891;SDS011;29555;45.350;5.578;2023-04-24T14:21:33;0.98;;;0.43;;
43891;SDS011;29555;45.350;5.578;2023-04-24T14:23:58;1.25;;;0.45;;
43891;SDS011;29555;45.350;5.578;2023-04-24T14:26:24;0.60;;;0.60;;
43891;SDS011;29555;45.350;5.578;2023-04-24T14:28:50;5.32;;;1.40;;
43891;SDS011;29555;45.350;5.578;2023-04-24T14:31:16;1.10;;;0.55;;
43891;SDS011;29555;45.350;5.578;2023-04-24T14:33:41;1.17;;;0.50;;
43891;SDS011;29555;45.350;5.578;2023-04-24T14:36:06;0.40;;;0.40;;
43891;SDS011;29555;45.350;5.578;2023-04-24T14:38:32;7.47;;;0.57;;
43891;SDS011;29555;45.350;5.578;2023-04-24T14:40:57;0.65;;;0.45;;
43891;SDS011;29555;45.350;5.578;2023-04-24T14:43:23;1.00;;;0.60;;
43891;SDS011;29555;45.350;5.578;2023-04-24T14:45:48;0.30;;;0.22;;
43891;SDS011;29555;45.350;5.578;2023-04-24T14:48:13;4.20;;;0.88;;
43891;SDS011;29555;45.350;5.578;2023-04-24T14:50:39;1.27;;;0.90;;
43891;SDS011;29555;45.350;5.578;2023-04-24T14:53:05;0.52;;;0.50;;
43891;SDS011;29555;45.350;5.578;2023-04-24T14:55:30;1.38;;;0.60;;
43891;SDS011;29555;45.350;5.578;2023-04-24T14:57:56;1.98;;;1.30;;
43891;SDS011;29555;45.350;5.578;2023-04-24T15:00:21;0.40;;;0.40;;
43891;SDS011;29555;45.350;5.578;2023-04-24T15:02:48;3.40;;;0.82;;
43891;SDS011;29555;45.350;5.578;2023-04-24T15:05:14;0.50;;;0.30;;